createdAt,value
2023-05-13T00:01:09.669Z,101151.16
2023-05-13T00:03:38.161Z,101157.06
2023-05-13T00:06:06.185Z,101155.53
2023-05-13T00:08:35.449Z,101158.91
2023-05-13T00:11:03.040Z,101152.25
2023-05-13T00:13:30.839Z,101157.59
2023-05-13T00:15:58.826Z,101156.94
2023-05-13T00:18:26.827Z,101155.50
2023-05-13T00:20:54.720Z,101157.47
2023-05-13T00:23:22.510Z,101163.69
2023-05-13T00:25:51.730Z,101158.50
2023-05-13T00:28:20.949Z,101158.59
2023-05-13T00:30:49.228Z,101160.41
2023-05-13T00:33:17.290Z,101158.84
2023-05-13T00:35:45.154Z,101164.28
2023-05-13T00:38:12.898Z,101152.41
2023-05-13T00:40:41.039Z,101161.25
2023-05-13T00:43:10.136Z,101158.88
2023-05-13T00:45:38.162Z,101158.88
2023-05-13T00:48:07.666Z,101147.44
2023-05-13T00:50:35.675Z,101158.63
2023-05-13T00:53:04.983Z,101152.56
2023-05-13T00:55:32.752Z,101157.84
2023-05-13T00:58:00.962Z,101165.75
2023-05-13T01:00:30.793Z,101152.81
2023-05-13T01:03:07.545Z,101145.06
2023-05-13T01:05:39.848Z,101148.59
2023-05-13T01:08:11.915Z,101149.53
2023-05-13T01:10:43.092Z,101149.59
2023-05-13T01:13:13.454Z,101151.47
2023-05-13T01:15:51.148Z,101146.41
2023-05-13T01:18:21.102Z,101156.81
2023-05-13T01:20:48.842Z,101149.94
2023-05-13T01:23:17.902Z,101156.06
2023-05-13T01:25:45.725Z,101153.66
2023-05-13T01:28:13.523Z,101152.09
2023-05-13T01:30:41.369Z,101154.06
2023-05-13T01:33:09.292Z,101150.00
2023-05-13T01:35:37.217Z,101151.81
2023-05-13T01:38:05.846Z,101154.47
2023-05-13T01:40:35.936Z,101156.41
2023-05-13T01:43:03.871Z,101166.13
2023-05-13T01:45:33.196Z,101162.72
2023-05-13T01:48:01.035Z,101160.13
2023-05-13T01:50:28.794Z,101161.81
2023-05-13T01:52:57.354Z,101167.09
2023-05-13T01:55:25.089Z,101155.97
2023-05-13T01:57:54.137Z,101156.81
2023-05-13T02:00:22.443Z,101157.00
2023-05-13T02:02:50.491Z,101158.84
2023-05-13T02:05:18.544Z,101165.97
2023-05-13T02:07:46.302Z,101153.88
2023-05-13T02:10:13.998Z,101154.78
2023-05-13T02:12:41.800Z,101160.88
2023-05-13T02:15:11.908Z,101158.28
2023-05-13T02:17:39.630Z,101164.28
2023-05-13T02:20:09.228Z,101163.38
2023-05-13T02:22:37.180Z,101159.75
2023-05-13T02:25:05.102Z,101164.91
2023-05-13T02:27:32.850Z,101169.13
2023-05-13T02:30:00.557Z,101168.31
2023-05-13T02:32:29.809Z,101163.22
2023-05-13T02:34:57.361Z,101159.88
2023-05-13T02:37:25.072Z,101149.59
2023-05-13T02:39:52.883Z,101157.38
2023-05-13T02:42:21.073Z,101157.38
2023-05-13T02:44:48.832Z,101158.19
2023-05-13T02:47:16.566Z,101150.38
2023-05-13T02:49:45.920Z,101147.00
2023-05-13T02:52:13.608Z,101152.31
2023-05-13T02:54:41.369Z,101158.41
2023-05-13T02:57:09.131Z,101161.09
2023-05-13T02:59:36.852Z,101156.06
2023-05-13T03:02:04.629Z,101160.47
2023-05-13T03:04:32.388Z,101154.47
2023-05-13T03:07:01.491Z,101158.00
2023-05-13T03:09:29.204Z,101153.91
2023-05-13T03:11:56.967Z,101145.41
2023-05-13T03:14:24.703Z,101153.31
2023-05-13T03:16:52.470Z,101162.13
2023-05-13T03:19:20.549Z,101157.03
2023-05-13T03:21:48.294Z,101157.13
2023-05-13T03:24:17.371Z,101155.53
2023-05-13T03:26:45.146Z,101160.13
2023-05-13T03:29:12.917Z,101157.66
2023-05-13T03:31:40.894Z,101159.53
2023-05-13T03:34:08.806Z,101154.47
2023-05-13T03:36:36.593Z,101150.28
2023-05-13T03:39:04.806Z,101146.09
2023-05-13T03:41:33.925Z,101153.09
2023-05-13T03:44:01.735Z,101160.88
2023-05-13T03:46:29.903Z,101152.28
2023-05-13T03:48:58.122Z,101149.78
2023-05-13T03:51:26.118Z,101151.41
2023-05-13T03:53:54.127Z,101149.59
2023-05-13T03:56:22.569Z,101155.66
2023-05-13T03:58:51.664Z,101164.44
2023-05-13T04:01:19.391Z,101163.66
2023-05-13T04:03:47.090Z,101167.16
2023-05-13T04:06:15.012Z,101167.13
2023-05-13T04:08:43.495Z,101167.81
2023-05-13T04:11:11.286Z,101174.44
2023-05-13T04:13:39.064Z,101170.81
2023-05-13T04:16:08.348Z,101168.81
2023-05-13T04:18:35.866Z,101174.59
2023-05-13T04:21:07.317Z,101166.63
2023-05-13T04:23:35.116Z,101169.09
2023-05-13T04:26:02.881Z,101172.38
2023-05-13T04:28:31.466Z,101173.97
2023-05-13T04:30:59.209Z,101177.25
2023-05-13T04:33:28.373Z,101174.47
2023-05-13T04:35:56.122Z,101172.69
2023-05-13T04:38:23.891Z,101176.81
2023-05-13T04:40:51.615Z,101176.66
2023-05-13T04:43:19.377Z,101173.84
2023-05-13T04:45:48.816Z,101179.59
2023-05-13T04:48:16.756Z,101176.78
2023-05-13T04:50:48.114Z,101182.50
2023-05-13T04:53:16.484Z,101181.28
2023-05-13T04:55:44.258Z,101181.81
2023-05-13T04:58:12.080Z,101179.78
2023-05-13T05:00:39.922Z,101179.53
2023-05-13T05:03:07.666Z,101175.81
2023-05-13T05:05:35.469Z,101184.13
2023-05-13T05:08:04.651Z,101188.13
2023-05-13T05:10:32.215Z,101191.09
2023-05-13T05:13:00.116Z,101186.31
2023-05-13T05:15:28.027Z,101194.44
2023-05-13T05:17:55.972Z,101187.97
2023-05-13T05:20:25.038Z,101186.53
2023-05-13T05:22:52.814Z,101193.78
2023-05-13T05:25:22.156Z,101193.41
2023-05-13T05:27:49.923Z,101192.97
2023-05-13T05:30:17.800Z,101197.06
2023-05-13T05:32:45.578Z,101195.09
2023-05-13T05:35:13.541Z,101198.50
2023-05-13T05:37:41.395Z,101201.75
2023-05-13T05:40:10.405Z,101199.28
2023-05-13T05:42:39.502Z,101200.19
2023-05-13T05:45:07.487Z,101208.13
2023-05-13T05:47:35.399Z,101195.75
2023-05-13T05:50:03.420Z,101200.63
2023-05-13T05:52:31.204Z,101205.28
2023-05-13T05:54:59.821Z,101205.59
2023-05-13T05:57:27.563Z,101208.16
2023-05-13T05:59:56.773Z,101201.81
2023-05-13T06:02:24.295Z,101210.13
2023-05-13T06:04:52.186Z,101207.56
2023-05-13T06:07:20.004Z,101212.66
2023-05-13T06:09:47.733Z,101215.69
2023-05-13T06:12:15.611Z,101213.56
2023-05-13T06:14:43.317Z,101212.88
2023-05-13T06:17:14.719Z,101214.91
2023-05-13T06:19:42.969Z,101224.66
2023-05-13T06:22:10.741Z,101211.81
2023-05-13T06:24:38.885Z,101208.66
2023-05-13T06:27:06.939Z,101214.25
2023-05-13T06:29:34.718Z,101212.66
2023-05-13T06:32:02.509Z,101208.72
2023-05-13T06:34:32.126Z,101209.84
2023-05-13T06:36:59.926Z,101210.53
2023-05-13T06:39:27.700Z,101211.97
2023-05-13T06:41:55.392Z,101218.69
2023-05-13T06:44:23.094Z,101214.72
2023-05-13T06:46:50.912Z,101219.53
2023-05-13T06:49:18.846Z,101208.66
2023-05-13T06:51:48.242Z,101214.38
2023-05-13T06:54:16.433Z,101213.13
2023-05-13T06:56:44.227Z,101214.16
2023-05-13T06:59:12.066Z,101215.22
2023-05-13T07:01:39.832Z,101224.41
2023-05-13T07:04:07.657Z,101216.00
2023-05-13T07:06:35.964Z,101219.63
2023-05-13T07:09:08.126Z,101219.69
2023-05-13T07:11:36.306Z,101222.72
2023-05-13T07:14:04.083Z,101226.38
2023-05-13T07:16:31.828Z,101224.25
2023-05-13T07:18:59.685Z,101218.66
2023-05-13T07:21:27.477Z,101210.72
2023-05-13T07:23:55.261Z,101220.97
2023-05-13T07:26:24.401Z,101214.72
2023-05-13T07:28:52.178Z,101208.06
2023-05-13T07:31:20.645Z,101219.41
2023-05-13T07:33:50.861Z,101225.31
2023-05-13T07:36:18.591Z,101226.34
2023-05-13T07:38:46.463Z,101221.03
2023-05-13T07:41:14.182Z,101223.19
2023-05-13T07:43:43.292Z,101221.75
2023-05-13T07:46:11.045Z,101222.88
2023-05-13T07:48:38.804Z,101218.09
2023-05-13T07:51:06.771Z,101200.06
2023-05-13T07:53:35.630Z,101205.03
2023-05-13T07:56:03.582Z,101199.91
2023-05-13T07:58:31.402Z,101202.16
2023-05-13T08:01:00.573Z,101203.97
2023-05-13T08:03:28.383Z,101194.50
2023-05-13T08:05:56.227Z,101202.84
2023-05-13T08:08:24.080Z,101218.63
2023-05-13T08:10:51.834Z,101213.88
2023-05-13T08:13:19.530Z,101210.81
2023-05-13T08:15:47.354Z,101209.41
2023-05-13T08:18:16.474Z,101204.50
2023-05-13T08:20:44.250Z,101208.94
2023-05-13T08:23:12.036Z,101205.38
2023-05-13T08:25:39.770Z,101203.22
2023-05-13T08:28:07.914Z,101198.00
2023-05-13T08:30:35.641Z,101201.13
2023-05-13T08:33:03.886Z,101196.38
2023-05-13T08:35:33.132Z,101199.44
2023-05-13T08:38:00.861Z,101203.13
2023-05-13T08:40:28.745Z,101201.75
2023-05-13T08:42:58.451Z,101205.59
2023-05-13T08:45:28.331Z,101206.22
2023-05-13T08:47:57.736Z,101203.09
2023-05-13T08:50:26.163Z,101205.75
2023-05-13T08:52:55.147Z,101204.25
2023-05-13T08:55:24.190Z,101204.66
2023-05-13T08:57:52.722Z,101209.44
2023-05-13T09:00:21.766Z,101209.81
2023-05-13T09:02:50.611Z,101208.03
2023-05-13T09:05:19.166Z,101206.50
2023-05-13T09:07:47.445Z,101204.09
2023-05-13T09:10:16.793Z,101214.00
2023-05-13T09:12:45.737Z,101207.53
2023-05-13T09:15:15.555Z,101214.84
2023-05-13T09:17:45.443Z,101207.53
2023-05-13T09:20:15.175Z,101213.28
2023-05-13T09:22:45.916Z,101208.81
2023-05-13T09:25:14.855Z,101202.66
2023-05-13T09:27:45.831Z,101206.03
2023-05-13T09:30:14.072Z,101203.75
2023-05-13T09:32:42.737Z,101193.72
2023-05-13T09:35:19.125Z,101192.31
2023-05-13T09:37:47.705Z,101188.84
2023-05-13T09:40:17.477Z,101178.00
2023-05-13T09:42:47.275Z,101178.25
2023-05-13T09:45:16.491Z,101181.78
2023-05-13T09:47:45.056Z,101179.09
2023-05-13T09:50:12.939Z,101177.84
2023-05-13T09:52:40.732Z,101177.38
2023-05-13T09:55:10.499Z,101175.31
2023-05-13T09:57:39.079Z,101180.91
2023-05-13T10:00:24.853Z,101169.03
2023-05-13T10:02:57.621Z,101171.69
2023-05-13T10:05:25.590Z,101167.78
2023-05-13T10:07:53.814Z,101162.91
2023-05-13T10:10:22.060Z,101155.75
2023-05-13T10:12:50.987Z,101159.69
2023-05-13T10:15:20.495Z,101158.81
2023-05-13T10:17:48.623Z,101157.47
2023-05-13T10:20:16.905Z,101158.53
2023-05-13T10:22:45.014Z,101153.94
2023-05-13T10:25:12.794Z,101146.97
2023-05-13T10:27:41.036Z,101144.56
2023-05-13T10:30:10.538Z,101142.91
2023-05-13T10:32:40.544Z,101150.84
2023-05-13T10:35:12.110Z,101149.59
2023-05-13T10:38:08.079Z,101143.78
2023-05-13T10:40:49.932Z,101147.66
2023-05-13T10:43:19.592Z,101146.56
2023-05-13T10:45:48.758Z,101143.34
2023-05-13T10:48:18.881Z,101135.38
2023-05-13T10:50:54.218Z,101141.97
2023-05-13T10:53:24.628Z,101133.72
2023-05-13T10:55:57.255Z,101133.44
2023-05-13T10:58:30.376Z,101145.16
2023-05-13T11:01:13.972Z,101135.63
2023-05-13T11:03:43.551Z,101135.34
2023-05-13T11:06:18.515Z,101135.34
2023-05-13T11:08:50.326Z,101135.56
2023-05-13T11:11:19.391Z,101118.47
2023-05-13T11:13:47.323Z,101109.00
2023-05-13T11:16:15.280Z,101124.41
2023-05-13T11:18:44.608Z,101126.47
2023-05-13T11:21:12.746Z,101135.00
2023-05-13T11:23:58.303Z,101127.06
2023-05-13T11:26:48.400Z,101121.88
2023-05-13T11:29:16.591Z,101112.38
2023-05-13T11:31:50.183Z,101108.66
2023-05-13T11:34:20.216Z,101120.03
2023-05-13T11:36:49.894Z,101107.88
2023-05-13T11:39:19.312Z,101097.72
2023-05-13T11:41:48.274Z,101102.16
2023-05-13T11:44:17.350Z,101112.41
2023-05-13T11:46:56.367Z,101103.84
2023-05-13T11:49:36.636Z,101105.31
2023-05-13T11:52:06.822Z,101100.00
2023-05-13T11:54:42.199Z,101086.63
2023-05-13T11:57:16.974Z,101094.06
2023-05-13T11:59:50.961Z,101085.00
2023-05-13T12:02:22.059Z,101090.34
2023-05-13T12:04:51.765Z,101091.34
2023-05-13T12:07:25.078Z,101092.50
2023-05-13T12:09:54.672Z,101107.09
2023-05-13T12:12:24.611Z,101097.09
2023-05-13T12:14:52.927Z,101108.25
2023-05-13T12:17:21.514Z,101073.72
2023-05-13T12:20:12.939Z,101090.06
2023-05-13T12:22:57.034Z,101087.91
2023-05-13T12:25:38.196Z,101090.66
2023-05-13T12:28:17.417Z,101085.13
2023-05-13T12:30:51.159Z,101089.75
2023-05-13T12:33:20.943Z,101082.00
2023-05-13T12:35:51.895Z,101087.97
2023-05-13T12:38:21.106Z,101087.81
2023-05-13T12:40:49.732Z,101096.75
2023-05-13T12:43:18.113Z,101095.56
2023-05-13T12:45:47.356Z,101087.41
2023-05-13T12:48:15.952Z,101093.59
2023-05-13T12:50:43.518Z,101098.72
2023-05-13T12:53:12.629Z,101097.78
2023-05-13T12:55:40.460Z,101088.25
2023-05-13T12:58:10.950Z,101093.16
2023-05-13T13:00:38.999Z,101091.63
2023-05-13T13:03:07.989Z,101088.16
2023-05-13T13:05:36.447Z,101097.75
2023-05-13T13:08:05.399Z,101090.34
2023-05-13T13:10:34.823Z,101087.16
2023-05-13T13:13:02.666Z,101094.22
2023-05-13T13:15:30.688Z,101095.91
2023-05-13T13:17:58.491Z,101093.31
2023-05-13T13:20:26.481Z,101088.31
2023-05-13T13:22:54.739Z,101079.69
2023-05-13T13:25:22.856Z,101085.63
2023-05-13T13:27:52.178Z,101087.19
2023-05-13T13:30:19.938Z,101090.41
2023-05-13T13:32:47.837Z,101082.47
2023-05-13T13:35:15.714Z,101070.59
2023-05-13T13:37:43.519Z,101073.00
2023-05-13T13:40:13.013Z,101072.81
2023-05-13T13:42:44.590Z,101074.41
2023-05-13T13:45:14.973Z,101075.22
2023-05-13T13:47:43.173Z,101074.31
2023-05-13T13:50:14.075Z,101076.34
2023-05-13T13:52:41.866Z,101073.50
2023-05-13T13:55:11.655Z,101078.69
2023-05-13T13:57:39.651Z,101073.81
2023-05-13T14:00:09.164Z,101074.50
2023-05-13T14:02:38.563Z,101070.00
2023-05-13T14:05:07.389Z,101076.00
2023-05-13T14:07:37.530Z,101068.47
2023-05-13T14:10:06.532Z,101064.31
2023-05-13T14:12:35.734Z,101064.84
2023-05-13T14:15:03.556Z,101049.44
2023-05-13T14:17:31.491Z,101049.50
2023-05-13T14:20:00.939Z,101046.34
2023-05-13T14:22:28.649Z,101039.59
2023-05-13T14:24:56.549Z,101037.72
2023-05-13T14:27:24.586Z,101038.44
2023-05-13T14:29:52.697Z,101035.25
2023-05-13T14:32:20.424Z,101029.81
2023-05-13T14:34:48.252Z,101034.94
2023-05-13T14:37:17.385Z,101025.75
2023-05-13T14:39:47.025Z,101042.63
2023-05-13T14:42:16.283Z,101034.91
2023-05-13T14:44:44.013Z,101031.81
2023-05-13T14:47:11.870Z,101039.66
2023-05-13T14:49:39.712Z,101040.63
2023-05-13T14:52:07.501Z,101038.47
2023-05-13T14:54:37.876Z,101035.19
2023-05-13T14:57:07.533Z,101030.47
2023-05-13T14:59:35.522Z,101034.75
2023-05-13T15:02:03.842Z,101020.34
2023-05-13T15:04:31.667Z,101042.25
2023-05-13T15:06:59.521Z,101027.28
2023-05-13T15:09:27.203Z,101038.22
2023-05-13T15:11:56.307Z,101037.44
2023-05-13T15:14:25.788Z,101044.31
2023-05-13T15:16:53.970Z,101036.22
2023-05-13T15:19:21.832Z,101038.06
2023-05-13T15:21:49.626Z,101048.03
2023-05-13T15:24:17.469Z,101047.97
2023-05-13T15:26:45.282Z,101056.63
2023-05-13T15:29:14.349Z,101065.25
2023-05-13T15:31:42.085Z,101076.47
2023-05-13T15:34:09.825Z,101062.63
2023-05-13T15:36:37.635Z,101058.13
2023-05-13T15:39:05.575Z,101072.94
2023-05-13T15:41:33.541Z,101064.56
2023-05-13T15:44:01.342Z,101069.59
2023-05-13T15:46:33.574Z,101079.28
2023-05-13T15:49:01.659Z,101094.03
2023-05-13T15:51:29.600Z,101100.72
2023-05-13T15:53:57.481Z,101101.13
2023-05-13T15:56:25.751Z,101085.94
2023-05-13T15:58:55.768Z,101078.13
2023-05-13T16:01:23.638Z,101074.81
2023-05-13T16:03:52.867Z,101066.19
2023-05-13T16:06:20.630Z,101055.69
2023-05-13T16:08:48.427Z,101047.81
2023-05-13T16:11:16.161Z,101047.84
2023-05-13T16:13:44.539Z,101040.88
2023-05-13T16:16:12.356Z,101043.06
2023-05-13T16:18:40.176Z,101035.84
2023-05-13T16:21:09.360Z,101048.56
2023-05-13T16:23:37.074Z,101060.81
2023-05-13T16:26:04.916Z,101050.00
2023-05-13T16:28:32.862Z,101051.06
2023-05-13T16:31:00.957Z,101065.25
2023-05-13T16:33:30.239Z,101068.53
2023-05-13T16:35:57.985Z,101075.41
2023-05-13T16:38:27.129Z,101085.13
2023-05-13T16:40:54.928Z,101086.94
2023-05-13T16:43:22.712Z,101080.59
2023-05-13T16:45:50.455Z,101069.41
2023-05-13T16:48:18.355Z,101071.47
2023-05-13T16:50:46.222Z,101054.19
2023-05-13T16:53:14.032Z,101052.03
2023-05-13T16:55:43.145Z,101051.41
2023-05-13T16:58:11.146Z,101047.22
2023-05-13T17:00:38.952Z,101052.47
2023-05-13T17:03:07.707Z,101054.84
2023-05-13T17:05:36.422Z,101052.34
2023-05-13T17:08:04.385Z,101058.13
2023-05-13T17:10:32.129Z,101056.31
2023-05-13T17:13:01.331Z,101044.31
2023-05-13T17:15:29.378Z,101044.78
2023-05-13T17:17:57.295Z,101046.91
2023-05-13T17:20:25.605Z,101050.16
2023-05-13T17:22:53.576Z,101044.88
2023-05-13T17:25:21.584Z,101042.09
2023-05-13T17:27:49.431Z,101049.53
2023-05-13T17:30:18.870Z,101044.72
2023-05-13T17:32:46.701Z,101055.03
2023-05-13T17:35:14.485Z,101064.88
2023-05-13T17:37:42.406Z,101068.66
2023-05-13T17:40:10.788Z,101072.41
2023-05-13T17:42:38.677Z,101070.75
2023-05-13T17:45:07.333Z,101080.59
2023-05-13T17:47:36.665Z,101062.59
2023-05-13T17:50:04.903Z,101074.00
2023-05-13T17:52:32.662Z,101069.66
2023-05-13T17:55:00.648Z,101060.88
2023-05-13T17:57:28.820Z,101068.28
2023-05-13T17:59:57.870Z,101051.31
2023-05-13T18:02:26.084Z,101041.72
2023-05-13T18:04:55.365Z,101040.03
2023-05-13T18:07:23.175Z,101035.25
2023-05-13T18:09:51.153Z,101036.69
2023-05-13T18:12:19.009Z,101038.59
2023-05-13T18:14:46.856Z,101032.84
2023-05-13T18:17:14.633Z,101040.28
2023-05-13T18:19:42.369Z,101047.00
2023-05-13T18:22:11.771Z,101042.44
2023-05-13T18:24:39.790Z,101062.22
2023-05-13T18:27:07.705Z,101071.44
2023-05-13T18:29:35.869Z,101079.31
2023-05-13T18:32:04.865Z,101074.13
2023-05-13T18:34:32.877Z,101070.63
2023-05-13T18:37:00.758Z,101077.31
2023-05-13T18:39:30.033Z,101076.09
2023-05-13T18:41:57.750Z,101077.63
2023-05-13T18:44:25.774Z,101079.88
2023-05-13T18:46:53.669Z,101078.84
2023-05-13T18:49:21.496Z,101080.38
2023-05-13T18:51:49.229Z,101077.56
2023-05-13T18:54:17.019Z,101086.13
2023-05-13T18:56:46.685Z,101083.94
2023-05-13T18:59:14.825Z,101085.31
2023-05-13T19:01:43.327Z,101090.22
2023-05-13T19:04:12.407Z,101091.59
2023-05-13T19:06:40.092Z,101095.91
2023-05-13T19:09:07.936Z,101101.81
2023-05-13T19:11:35.916Z,101098.28
2023-05-13T19:14:05.092Z,101107.09
2023-05-13T19:16:33.138Z,101110.03
2023-05-13T19:19:01.225Z,101112.22
2023-05-13T19:21:29.228Z,101114.31
2023-05-13T19:23:58.608Z,101118.81
2023-05-13T19:26:26.448Z,101120.00
2023-05-13T19:28:54.672Z,101117.81
2023-05-13T19:31:24.709Z,101115.22
2023-05-13T19:33:52.522Z,101127.91
2023-05-13T19:36:20.356Z,101120.53
2023-05-13T19:38:48.282Z,101113.22
2023-05-13T19:41:16.042Z,101119.44
2023-05-13T19:43:43.816Z,101121.88
2023-05-13T19:46:11.606Z,101118.22
2023-05-13T19:48:40.741Z,101119.72
2023-05-13T19:51:08.623Z,101121.94
2023-05-13T19:53:36.658Z,101124.13
2023-05-13T19:56:04.820Z,101118.31
2023-05-13T19:58:32.605Z,101121.19
2023-05-13T20:01:01.041Z,101119.59
2023-05-13T20:03:29.078Z,101119.78
2023-05-13T20:05:58.297Z,101122.78
2023-05-13T20:08:25.848Z,101123.59
2023-05-13T20:10:53.606Z,101120.59
2023-05-13T20:13:21.462Z,101124.50
2023-05-13T20:15:49.293Z,101121.16
2023-05-13T20:18:17.222Z,101127.78
2023-05-13T20:20:46.988Z,101126.53
2023-05-13T20:23:16.196Z,101128.63
2023-05-13T20:25:43.761Z,101137.66
2023-05-13T20:28:11.598Z,101138.47
2023-05-13T20:30:41.742Z,101142.63
2023-05-13T20:33:09.908Z,101143.69
2023-05-13T20:35:38.266Z,101134.09
2023-05-13T20:38:06.211Z,101136.63
2023-05-13T20:40:35.385Z,101135.53
2023-05-13T20:43:04.207Z,101138.31
2023-05-13T20:45:32.914Z,101126.28
2023-05-13T20:48:01.174Z,101131.72
2023-05-13T20:50:29.590Z,101132.03
2023-05-13T20:52:57.396Z,101129.75
2023-05-13T20:55:25.172Z,101130.06
2023-05-13T20:57:55.692Z,101130.47
2023-05-13T21:00:23.872Z,101128.09
2023-05-13T21:02:53.245Z,101132.72
2023-05-13T21:05:21.055Z,101130.56
2023-05-13T21:07:49.069Z,101132.56
2023-05-13T21:10:16.842Z,101125.78
2023-05-13T21:12:47.702Z,101135.38
2023-05-13T21:15:17.244Z,101130.09
2023-05-13T21:17:46.383Z,101137.63
2023-05-13T21:20:14.411Z,101141.00
2023-05-13T21:22:42.191Z,101139.00
2023-05-13T21:25:10.522Z,101137.94
2023-05-13T21:27:38.328Z,101139.94
2023-05-13T21:30:07.255Z,101143.66
2023-05-13T21:32:36.467Z,101141.41
2023-05-13T21:35:04.405Z,101136.13
2023-05-13T21:37:32.207Z,101143.34
2023-05-13T21:39:59.999Z,101146.34
2023-05-13T21:42:27.891Z,101144.22
2023-05-13T21:44:57.143Z,101135.31
2023-05-13T21:47:24.991Z,101137.63
2023-05-13T21:49:54.139Z,101133.00
2023-05-13T21:52:21.762Z,101134.38
2023-05-13T21:54:49.531Z,101138.06
2023-05-13T21:57:17.351Z,101136.69
2023-05-13T21:59:45.356Z,101136.19
2023-05-13T22:02:13.156Z,101145.28
2023-05-13T22:04:40.955Z,101137.66
2023-05-13T22:07:10.048Z,101136.06
2023-05-13T22:09:37.810Z,101126.72
2023-05-13T22:12:06.107Z,101136.38
2023-05-13T22:14:33.853Z,101138.91
2023-05-13T22:19:35.449Z,101136.94
2023-05-13T22:22:03.459Z,101135.13
2023-05-13T22:24:32.553Z,101137.59
2023-05-13T22:27:00.387Z,101130.69
2023-05-13T22:29:28.217Z,101137.66
2023-05-13T22:31:57.417Z,101135.13
2023-05-13T22:34:25.314Z,101134.06
2023-05-13T22:36:53.060Z,101134.91
2023-05-13T22:39:21.195Z,101131.38
2023-05-13T22:41:50.344Z,101124.41
2023-05-13T22:44:18.289Z,101126.31
2023-05-13T22:46:46.271Z,101126.38
2023-05-13T22:49:14.113Z,101128.34
2023-05-13T22:51:42.051Z,101124.19
2023-05-13T22:54:09.772Z,101126.84
2023-05-13T22:56:37.509Z,101120.03
2023-05-13T22:59:06.721Z,101117.47
2023-05-13T23:01:34.321Z,101118.50
2023-05-13T23:04:02.088Z,101116.94
2023-05-13T23:06:29.881Z,101116.22
2023-05-13T23:08:58.475Z,101122.44
2023-05-13T23:11:26.191Z,101121.81
2023-05-13T23:13:53.932Z,101118.59
2023-05-13T23:16:23.043Z,101118.88
2023-05-13T23:18:50.680Z,101117.53
2023-05-13T23:21:18.469Z,101108.22
2023-05-13T23:23:46.245Z,101112.16
2023-05-13T23:26:13.984Z,101115.91
2023-05-13T23:28:41.791Z,101107.53
2023-05-13T23:31:09.554Z,101103.31
2023-05-13T23:33:38.702Z,101110.34
2023-05-13T23:36:06.606Z,101103.38
2023-05-13T23:38:34.386Z,101103.16
2023-05-13T23:41:02.212Z,101109.09
2023-05-13T23:43:30.040Z,101099.50
2023-05-13T23:45:57.857Z,101099.38
2023-05-13T23:48:28.248Z,101101.06
2023-05-13T23:50:57.370Z,101094.09
2023-05-13T23:53:25.230Z,101092.41
2023-05-13T23:55:53.024Z,101088.25
2023-05-13T23:58:20.813Z,101085.00
